Allen Park, MI (48101)

8:36 AM EST on February 27, 2015 (GMT -0500)
Detroit Ave. & Fort Park | Change Station
CLOSE
Current Station
Personal Weather Station
Location: Lincoln Park, MI
Elevation: 587 ft
Nearby Weather Stations

Elev 587 ft 42.24 °N, 83.18 °W | Updated 10 minutes ago

Clear
Clear
1.0 °F
Feels Like 1 °F
N
2.7
Wind Variable Wind from WSW

Today
High -- | Low -- °F
--% Chance of Precip.
Yesterday
High -- | Low -- °F
Precip. -- in
7:11 AM 6:20 PM
Waxing Gibbous, 68% visible
Pressure 30.55 in
Visibility 9.0 miles
Clouds Clear
Windchill 1 °F
Dew Point -3 °F
Humidity 84%
Rainfall 0.00 in
Snow Depth Not available.
UV 0 out of 12
Pollen .40 out of 12
Air Quality Not available.
Flu Activity Not available.
METAR KDTW 271253Z 00000KT 9SM CLR M19/M22 A3050 RMK AO2 SLP344 T11891217

More Conditions Fewer Conditions

Pressure 30.55 in
Visibility 9.0 miles
Clouds Clear
Windchill 1 °F
Dew Point -3 °F
Humidity 84%
Rainfall 0.00 in
Snow Depth Not available.
UV 0 out of 12
Pollen .40 out of 12
Air Quality Not available.
Flu Activity Not available.
METAR KDTW 271253Z 00000KT 9SM CLR M19/M22 A3050 RMK AO2 SLP344 T11891217

More Conditions Fewer Conditions

10-Day Weather Forecast

Almanac

Astronomy

Feb. 27, 2015 Rise Set
Actual Time
Civil Twilight
Nautical Twilight
Astronomical Twilight
Moon
Length of Visible Light
Length of Day
Tomorrow will be .
, % of the Moon is Illuminated

Today's Extremes

State Highs State Lows

Community

WunderPhotos

Upload Photos

1,800,673 photos uploaded!

WunderBlogs® & News

Nearby

Air Quality

  Air Quality AQ Index Pollutant
Not available.

Snow Depth

Station Depth Elevation

Earthquake Activity

City Distance Mag. Time & Date
Minimum magnitude displayed is 2.5.

Coastal Water Temperatures

Place Temperature

Nearby Weather Stations